Time;durP1;ratioP1;P1;durP2;ratioP2;P2;SDS_P1;SDS_P2;PMS_P1;PMS_P2;Temp;Humidity;BMP_temperature;BMP_pressure;BME280_temperature;BME280_humidity;BME280_pressure;Samples;Min_cycle;Max_cycle;Signal;HPM_P1;HPM_P2
2023/12/25 00:00:51;;;;;;;16.83;1.40;;;12.30;99.90;;;;;;4953680;28;20407;-73
2023/12/25 00:03:16;;;;;;;17.10;2.15;;;12.30;99.90;;;;;;4954530;28;20614;-74
2023/12/25 00:05:42;;;;;;;10.98;1.67;;;12.30;99.90;;;;;;4960942;28;20061;-73
2023/12/25 00:08:07;;;;;;;10.40;1.55;;;12.30;99.90;;;;;;4949646;28;20035;-73
2023/12/25 00:10:33;;;;;;;10.00;1.10;;;12.20;99.90;;;;;;4963595;28;20042;-73
2023/12/25 00:12:58;;;;;;;13.77;2.25;;;12.20;99.90;;;;;;4962506;28;20031;-73
2023/12/25 00:15:24;;;;;;;11.70;2.65;;;12.20;99.90;;;;;;4952446;28;20062;-74
2023/12/25 00:17:49;;;;;;;9.32;1.70;;;12.10;99.90;;;;;;4952745;28;20519;-75
2023/12/25 00:20:15;;;;;;;7.85;1.27;;;12.00;99.90;;;;;;4956186;28;20130;-74
2023/12/25 00:22:40;;;;;;;6.95;1.42;;;12.00;99.90;;;;;;4960415;28;20410;-73
2023/12/25 00:25:06;;;;;;;4.75;1.17;;;11.90;99.90;;;;;;4955693;28;20098;-71
2023/12/25 00:27:32;;;;;;;9.00;1.10;;;11.90;99.90;;;;;;4948047;28;20027;-74
2023/12/25 00:29:58;;;;;;;8.57;0.70;;;11.90;99.90;;;;;;4950927;28;20039;-74
2023/12/25 00:32:23;;;;;;;7.57;1.52;;;11.90;99.90;;;;;;4959268;28;20031;-74
2023/12/25 00:34:49;;;;;;;9.80;0.90;;;11.90;99.90;;;;;;4963022;28;20130;-74
2023/12/25 00:37:15;;;;;;;9.60;1.58;;;11.80;99.90;;;;;;4959111;28;20030;-74
2023/12/25 00:39:41;;;;;;;11.82;1.77;;;11.80;99.90;;;;;;4955937;28;20098;-73
2023/12/25 00:42:07;;;;;;;12.60;2.25;;;11.80;99.90;;;;;;4961038;28;20038;-73
2023/12/25 00:44:32;;;;;;;10.70;1.83;;;11.80;99.90;;;;;;4952102;28;20038;-74
2023/12/25 00:46:58;;;;;;;15.30;1.45;;;11.80;99.90;;;;;;4961014;28;20062;-74
2023/12/25 00:49:23;;;;;;;13.85;2.53;;;11.80;99.90;;;;;;4955718;28;20435;-74
2023/12/25 00:51:49;;;;;;;10.60;1.92;;;11.80;99.90;;;;;;4959234;28;20118;-72
2023/12/25 00:54:14;;;;;;;10.02;1.83;;;11.80;99.90;;;;;;4950487;28;20055;-73
2023/12/25 00:56:40;;;;;;;9.68;2.45;;;11.70;99.90;;;;;;4953148;28;20038;-75
2023/12/25 00:59:06;;;;;;;16.23;2.33;;;11.80;99.90;;;;;;4964279;28;20047;-73
2023/12/25 01:01:31;;;;;;;9.05;1.95;;;11.80;99.90;;;;;;4961125;28;20086;-72
2023/12/25 01:03:57;;;;;;;18.30;2.33;;;11.80;99.90;;;;;;4955448;28;20106;-73
2023/12/25 01:06:22;;;;;;;9.90;2.40;;;11.80;99.90;;;;;;4963619;28;20035;-72
2023/12/25 01:08:48;;;;;;;7.82;1.42;;;11.70;99.90;;;;;;4952567;28;20043;-74
2023/12/25 01:11:14;;;;;;;11.23;1.88;;;11.70;99.90;;;;;;4955234;28;20451;-73
2023/12/25 01:13:40;;;;;;;16.75;2.80;;;11.80;99.90;;;;;;4955896;28;20035;-75
2023/12/25 01:16:06;;;;;;;10.77;2.10;;;11.80;99.90;;;;;;4960542;28;20043;-74
2023/12/25 01:18:31;;;;;;;10.60;1.58;;;11.70;99.90;;;;;;4955648;28;20085;-73
2023/12/25 01:20:57;;;;;;;12.10;2.33;;;11.80;99.90;;;;;;4958473;28;20361;-73
2023/12/25 01:23:22;;;;;;;13.88;1.50;;;11.70;99.90;;;;;;4957579;28;20057;-73
2023/12/25 01:25:48;;;;;;;6.35;1.45;;;11.70;99.90;;;;;;4959607;28;20121;-74
2023/12/25 01:28:14;;;;;;;13.68;1.75;;;11.70;99.90;;;;;;4955332;28;20033;-74
2023/12/25 01:30:39;;;;;;;6.15;1.05;;;11.80;99.90;;;;;;4961142;28;20027;-73
2023/12/25 01:33:05;;;;;;;6.80;1.00;;;11.80;99.90;;;;;;4960369;28;20149;-75
2023/12/25 01:35:30;;;;;;;3.83;1.00;;;11.80;99.90;;;;;;4958475;28;20038;-74
2023/12/25 01:37:56;;;;;;;6.40;0.98;;;11.80;99.90;;;;;;4967488;28;20679;-74
2023/12/25 01:40:22;;;;;;;11.68;1.83;;;11.70;99.90;;;;;;4959784;28;20039;-71
2023/12/25 01:42:47;;;;;;;7.88;0.80;;;11.80;99.90;;;;;;4959610;28;20066;-75
2023/12/25 01:45:13;;;;;;;4.20;1.10;;;11.80;99.90;;;;;;4959761;28;20042;-75
2023/12/25 01:47:39;;;;;;;2.22;0.52;;;11.80;99.90;;;;;;4967280;28;20062;-76
2023/12/25 01:50:06;;;;;;;5.15;0.60;;;11.70;99.90;;;;;;4964650;28;20038;-75
2023/12/25 01:52:31;;;;;;;5.38;1.25;;;11.70;99.90;;;;;;4959429;28;20134;-76
2023/12/25 01:54:59;;;;;;;10.02;1.25;;;11.70;99.90;;;;;;4963510;28;20486;-75
2023/12/25 01:57:26;;;;;;;12.32;1.13;;;11.60;99.90;;;;;;4952271;28;20094;-75
2023/12/25 01:59:51;;;;;;;9.57;2.20;;;11.70;99.90;;;;;;4954033;28;20046;-75
2023/12/25 02:02:20;;;;;;;10.80;2.28;;;11.60;99.90;;;;;;4959311;28;20031;-76
2023/12/25 02:04:46;;;;;;;10.75;1.38;;;11.60;99.90;;;;;;4958214;28;20042;-74
2023/12/25 02:07:13;;;;;;;8.38;1.08;;;11.60;99.90;;;;;;4954744;28;20038;-75
2023/12/25 02:09:39;;;;;;;15.45;2.35;;;11.80;99.90;;;;;;4947110;28;20058;-75
2023/12/25 02:12:05;;;;;;;13.32;2.25;;;11.70;99.90;;;;;;4962875;28;20069;-76
2023/12/25 02:14:31;;;;;;;19.10;2.28;;;11.70;99.90;;;;;;4964184;28;20087;-76
2023/12/25 02:16:56;;;;;;;16.55;1.40;;;11.70;99.90;;;;;;4958387;28;20035;-74
2023/12/25 02:19:27;;;;;;;15.38;2.45;;;11.70;99.90;;;;;;4948935;28;20566;-73
2023/12/25 02:21:54;;;;;;;9.60;1.63;;;11.70;99.90;;;;;;4960148;28;20050;-74
2023/12/25 02:24:27;;;;;;;15.18;1.98;;;11.70;99.90;;;;;;4959774;28;20588;-71
2023/12/25 02:26:52;;;;;;;11.40;1.88;;;11.80;99.90;;;;;;4962505;28;20134;-74
2023/12/25 02:29:18;;;;;;;8.80;1.40;;;11.70;99.90;;;;;;4962192;28;20173;-73
2023/12/25 02:31:48;;;;;;;12.02;1.70;;;11.70;99.90;;;;;;4965586;28;20132;-72
2023/12/25 02:34:14;;;;;;;14.65;3.55;;;11.70;99.90;;;;;;4965976;28;20027;-72
2023/12/25 02:36:39;;;;;;;12.05;1.48;;;11.70;99.90;;;;;;4965806;28;20081;-73
2023/12/25 02:39:05;;;;;;;14.20;1.45;;;11.70;99.90;;;;;;4965990;28;20038;-73
2023/12/25 02:41:30;;;;;;;10.65;1.30;;;11.70;99.90;;;;;;4966887;28;20066;-73
2023/12/25 02:43:56;;;;;;;10.35;1.60;;;11.70;99.90;;;;;;4951164;28;20677;-71
2023/12/25 02:46:22;;;;;;;14.27;3.22;;;11.60;99.90;;;;;;4957112;28;20057;-72
2023/12/25 02:48:47;;;;;;;5.70;1.25;;;11.70;99.90;;;;;;4964614;28;20177;-72
2023/12/25 02:51:13;;;;;;;13.02;1.83;;;11.70;99.90;;;;;;4966689;28;20034;-73
2023/12/25 02:53:38;;;;;;;14.80;1.95;;;11.70;99.90;;;;;;4963353;28;20027;-74
2023/12/25 02:56:04;;;;;;;10.65;1.50;;;11.60;99.90;;;;;;4946850;28;20488;-72
2023/12/25 02:58:30;;;;;;;8.05;1.48;;;11.70;99.90;;;;;;4952543;28;20041;-72
2023/12/25 03:00:55;;;;;;;10.98;1.60;;;11.70;99.90;;;;;;4964848;28;20047;-73
2023/12/25 03:03:21;;;;;;;12.77;1.92;;;11.70;99.90;;;;;;4967111;28;20058;-73
2023/12/25 03:05:46;;;;;;;11.93;1.67;;;11.70;99.90;;;;;;4965171;28;20035;-73
2023/12/25 03:08:12;;;;;;;10.40;1.55;;;11.70;99.90;;;;;;4966889;28;20122;-74
2023/12/25 03:10:37;;;;;;;8.68;1.60;;;11.80;99.90;;;;;;4966702;28;20089;-75
2023/12/25 03:13:03;;;;;;;11.93;1.83;;;11.70;99.90;;;;;;4965556;28;20580;-73
2023/12/25 03:15:29;;;;;;;9.55;2.35;;;11.70;99.90;;;;;;4965359;28;20031;-73
2023/12/25 03:17:54;;;;;;;8.88;1.70;;;11.70;99.90;;;;;;4953048;28;20044;-75
2023/12/25 03:20:22;;;;;;;10.80;1.45;;;11.70;99.90;;;;;;4965232;28;20027;-71
2023/12/25 03:22:47;;;;;;;15.43;1.80;;;11.70;99.90;;;;;;4966619;28;20039;-74
2023/12/25 03:25:13;;;;;;;21.60;1.75;;;11.70;99.90;;;;;;4952953;28;20038;-73
2023/12/25 03:27:39;;;;;;;12.45;2.53;;;11.70;99.90;;;;;;4964997;28;20042;-71
2023/12/25 03:30:05;;;;;;;13.90;2.78;;;11.70;99.90;;;;;;4965782;28;20384;-72
2023/12/25 03:32:31;;;;;;;9.55;1.80;;;11.70;99.90;;;;;;4953806;28;20411;-73
2023/12/25 03:34:56;;;;;;;13.77;1.40;;;11.70;99.90;;;;;;4945783;28;20039;-73
2023/12/25 03:37:22;;;;;;;9.68;1.10;;;11.70;99.90;;;;;;4945769;28;20031;-73
2023/12/25 03:39:47;;;;;;;7.47;1.58;;;11.80;99.90;;;;;;4947266;28;20488;-73
2023/12/25 03:42:13;;;;;;;12.40;1.65;;;11.70;99.90;;;;;;4947193;28;20484;-72
2023/12/25 03:44:38;;;;;;;10.88;1.23;;;11.80;99.90;;;;;;4945969;28;20024;-73
2023/12/25 03:47:04;;;;;;;10.48;1.58;;;11.80;99.90;;;;;;4951339;28;20027;-73
2023/12/25 03:49:30;;;;;;;10.40;2.13;;;11.80;99.90;;;;;;4950369;28;20038;-72
2023/12/25 03:51:56;;;;;;;12.82;1.45;;;11.80;99.90;;;;;;4964444;28;20123;-74
2023/12/25 03:54:22;;;;;;;13.82;1.65;;;11.80;99.90;;;;;;4946034;28;20046;-72
2023/12/25 03:56:48;;;;;;;6.85;0.80;;;11.80;99.90;;;;;;4945604;28;20376;-72
2023/12/25 03:59:13;;;;;;;12.88;1.73;;;11.80;99.90;;;;;;4945882;28;20410;-71
2023/12/25 04:01:39;;;;;;;9.02;0.93;;;11.80;99.90;;;;;;4948636;28;20402;-73
2023/12/25 04:04:05;;;;;;;13.30;2.65;;;11.80;99.90;;;;;;4949216;28;20171;-73
2023/12/25 04:06:31;;;;;;;10.30;1.38;;;11.80;99.90;;;;;;4950516;28;21955;-72
2023/12/25 04:08:57;;;;;;;15.10;2.92;;;11.90;99.90;;;;;;4948940;28;20039;-72
2023/12/25 04:11:24;;;;;;;9.65;1.58;;;11.80;99.90;;;;;;4948882;28;20130;-73
2023/12/25 04:13:53;;;;;;;6.88;2.28;;;11.80;99.90;;;;;;4950467;28;20039;-73
2023/12/25 04:16:22;;;;;;;10.10;1.33;;;11.80;99.90;;;;;;4956900;28;20112;-72
2023/12/25 04:18:48;;;;;;;14.80;1.58;;;11.80;99.90;;;;;;4966449;28;20442;-73
2023/12/25 04:21:27;;;;;;;12.32;2.08;;;11.80;99.90;;;;;;4962104;28;20066;-74
2023/12/25 04:23:54;;;;;;;13.70;1.58;;;11.80;99.90;;;;;;4952283;28;20047;-72
2023/12/25 04:26:21;;;;;;;11.57;1.63;;;11.90;99.90;;;;;;4963931;28;20066;-72
2023/12/25 04:28:48;;;;;;;16.55;1.23;;;11.80;99.90;;;;;;4957924;28;20102;-73
2023/12/25 04:31:14;;;;;;;10.15;1.10;;;11.80;99.90;;;;;;4951750;28;20031;-72
2023/12/25 04:33:40;;;;;;;10.40;2.15;;;11.80;99.90;;;;;;4958569;28;20028;-74
2023/12/25 04:36:06;;;;;;;10.38;1.38;;;11.80;99.90;;;;;;4956113;28;20129;-73
2023/12/25 04:38:31;;;;;;;10.48;1.80;;;11.80;99.90;;;;;;4955690;28;20050;-73
2023/12/25 04:40:57;;;;;;;15.60;2.35;;;11.80;99.90;;;;;;4956614;28;20035;-73
2023/12/25 04:43:23;;;;;;;12.38;2.78;;;11.70;99.90;;;;;;4958298;28;20031;-73
2023/12/25 04:45:48;;;;;;;8.93;2.03;;;11.70;99.90;;;;;;4953534;28;20577;-73
2023/12/25 04:48:14;;;;;;;11.02;2.22;;;11.80;99.90;;;;;;4956948;28;20043;-76
2023/12/25 04:50:40;;;;;;;10.23;2.40;;;11.70;99.90;;;;;;4967025;28;20110;-75
2023/12/25 04:53:06;;;;;;;8.38;2.33;;;11.70;99.90;;;;;;4952859;28;20035;-74
2023/12/25 04:55:32;;;;;;;12.68;1.38;;;11.70;99.90;;;;;;4967169;28;20031;-73
2023/12/25 04:57:58;;;;;;;21.05;2.35;;;11.70;99.90;;;;;;4951834;28;20093;-72
2023/12/25 05:00:24;;;;;;;9.90;2.03;;;11.70;99.90;;;;;;4961272;28;20440;-73
2023/12/25 05:02:49;;;;;;;17.02;2.13;;;11.80;99.90;;;;;;4961610;28;20031;-74
2023/12/25 05:05:15;;;;;;;14.65;2.22;;;11.70;99.90;;;;;;4954926;28;20130;-72
2023/12/25 05:07:41;;;;;;;9.65;1.58;;;11.70;99.90;;;;;;4956436;28;20072;-74
2023/12/25 05:10:07;;;;;;;11.07;1.58;;;11.70;99.90;;;;;;4958731;28;20035;-76
2023/12/25 05:12:33;;;;;;;13.57;1.27;;;11.70;99.90;;;;;;4958898;28;20510;-74
2023/12/25 05:14:59;;;;;;;18.05;1.85;;;11.70;99.90;;;;;;4944102;28;20035;-74
2023/12/25 05:17:25;;;;;;;10.82;1.88;;;11.70;99.90;;;;;;4948303;28;20027;-75
2023/12/25 05:19:50;;;;;;;13.05;1.25;;;11.70;99.90;;;;;;4958700;28;20042;-74
2023/12/25 05:22:16;;;;;;;11.00;1.48;;;11.80;99.90;;;;;;4963825;28;20431;-73
2023/12/25 05:24:42;;;;;;;17.98;2.22;;;11.80;99.90;;;;;;4954693;28;20039;-74
2023/12/25 05:27:08;;;;;;;7.00;1.65;;;11.70;99.90;;;;;;4961976;28;20058;-73
2023/12/25 05:29:34;;;;;;;11.00;1.15;;;11.70;99.90;;;;;;4963560;28;20036;-75
2023/12/25 05:32:00;;;;;;;5.30;0.60;;;11.70;99.90;;;;;;4956401;28;20487;-74
2023/12/25 05:34:27;;;;;;;9.43;1.35;;;11.60;99.90;;;;;;4964676;28;20035;-74
2023/12/25 05:36:53;;;;;;;6.28;1.10;;;11.60;99.90;;;;;;4968420;28;20406;-74
2023/12/25 05:39:19;;;;;;;6.85;0.88;;;11.60;99.90;;;;;;4961155;28;20035;-74
2023/12/25 05:41:44;;;;;;;11.25;1.75;;;11.60;99.90;;;;;;4957042;28;20043;-73
2023/12/25 05:44:10;;;;;;;10.13;0.88;;;11.60;99.90;;;;;;4960207;28;20039;-73
2023/12/25 05:46:36;;;;;;;8.10;1.08;;;11.60;99.90;;;;;;4959716;28;20047;-73
2023/12/25 05:49:03;;;;;;;8.32;1.48;;;11.50;99.90;;;;;;4959732;28;20045;-76
2023/12/25 05:51:28;;;;;;;9.85;1.27;;;11.50;99.90;;;;;;4962773;28;20057;-72
2023/12/25 05:53:54;;;;;;;12.80;0.93;;;11.60;99.90;;;;;;4950974;28;20510;-72
2023/12/25 05:56:20;;;;;;;4.03;1.10;;;11.50;99.90;;;;;;4960548;28;20046;-73
2023/12/25 05:58:45;;;;;;;5.38;0.80;;;11.50;99.90;;;;;;4954266;28;20129;-75
2023/12/25 06:01:13;;;;;;;3.60;0.50;;;11.50;99.90;;;;;;4956903;28;20042;-75
2023/12/25 06:03:39;;;;;;;4.95;1.40;;;11.50;99.90;;;;;;4955279;28;20035;-75
2023/12/25 06:06:05;;;;;;;6.82;0.85;;;11.50;99.90;;;;;;4953500;28;20043;-74
2023/12/25 06:08:30;;;;;;;4.55;0.90;;;11.50;99.90;;;;;;4956339;28;20133;-74
2023/12/25 06:10:57;;;;;;;7.13;0.73;;;11.40;99.90;;;;;;4958324;28;20043;-73
2023/12/25 06:13:22;;;;;;;3.13;0.40;;;11.40;99.90;;;;;;4966566;28;20031;-74
2023/12/25 06:15:50;;;;;;;2.00;0.55;;;11.30;99.90;;;;;;4968189;28;20054;-72
2023/12/25 06:18:17;;;;;;;1.65;0.38;;;11.40;99.90;;;;;;4963417;28;20085;-75
2023/12/25 06:20:43;;;;;;;1.00;0.35;;;11.30;99.90;;;;;;4959376;28;20062;-73
2023/12/25 06:23:09;;;;;;;1.45;0.50;;;11.40;99.90;;;;;;4960171;28;20034;-73
2023/12/25 06:25:35;;;;;;;3.47;0.32;;;11.30;99.90;;;;;;4957896;28;20109;-73
2023/12/25 06:28:01;;;;;;;10.65;1.13;;;11.30;99.90;;;;;;4950114;28;20476;-74
2023/12/25 06:30:26;;;;;;;3.17;0.60;;;11.20;99.90;;;;;;4958972;28;20142;-74
2023/12/25 06:32:52;;;;;;;7.60;1.38;;;11.20;99.90;;;;;;4957303;28;20050;-75
2023/12/25 06:35:17;;;;;;;3.25;0.80;;;11.20;99.90;;;;;;4961946;28;20039;-73
2023/12/25 06:37:43;;;;;;;3.92;0.40;;;11.20;99.90;;;;;;4959308;28;20351;-73
2023/12/25 06:40:09;;;;;;;3.78;0.85;;;11.10;99.90;;;;;;4958645;28;20051;-74
2023/12/25 06:42:34;;;;;;;7.35;0.82;;;11.10;99.90;;;;;;4957160;28;20039;-74
2023/12/25 06:45:00;;;;;;;3.53;0.93;;;11.10;99.90;;;;;;4955809;28;20034;-73
2023/12/25 06:47:26;;;;;;;2.17;0.40;;;11.10;99.90;;;;;;4955045;28;20031;-73
2023/12/25 06:49:52;;;;;;;6.10;0.40;;;11.00;99.90;;;;;;4941675;28;20121;-73
2023/12/25 06:52:18;;;;;;;3.92;0.63;;;11.00;99.90;;;;;;4956637;28;20405;-72
2023/12/25 06:54:44;;;;;;;6.78;0.80;;;11.00;99.90;;;;;;4958440;28;20031;-73
2023/12/25 06:57:11;;;;;;;3.05;0.50;;;11.00;99.90;;;;;;4961819;28;20039;-74
2023/12/25 06:59:37;;;;;;;7.07;0.75;;;11.00;99.90;;;;;;4963727;28;20041;-74
2023/12/25 07:02:03;;;;;;;2.97;0.40;;;11.00;99.90;;;;;;4950518;28;20161;-74
2023/12/25 07:04:29;;;;;;;4.40;0.73;;;10.90;99.90;;;;;;4952267;28;20063;-74
2023/12/25 07:06:54;;;;;;;6.00;0.43;;;11.00;99.90;;;;;;4959118;28;20046;-73
2023/12/25 07:09:20;;;;;;;6.47;0.50;;;11.00;99.90;;;;;;4953285;28;20643;-73
2023/12/25 07:11:45;;;;;;;1.55;0.85;;;10.90;99.90;;;;;;4955636;28;20046;-74
2023/12/25 07:14:11;;;;;;;4.57;0.70;;;10.90;99.90;;;;;;4958897;28;20031;-73
2023/12/25 07:16:36;;;;;;;6.10;0.52;;;10.90;99.90;;;;;;4954996;28;20105;-74
2023/12/25 07:19:02;;;;;;;3.28;1.38;;;10.90;99.90;;;;;;4954694;28;20043;-74
2023/12/25 07:21:28;;;;;;;5.25;0.45;;;10.90;99.90;;;;;;4961114;28;20039;-74
2023/12/25 07:23:56;;;;;;;5.55;1.20;;;10.90;99.90;;;;;;4946315;28;20079;-74
2023/12/25 07:26:22;;;;;;;8.15;0.70;;;10.90;99.90;;;;;;4957497;28;20035;-72
2023/12/25 07:28:48;;;;;;;11.27;1.33;;;10.80;99.90;;;;;;4956347;28;20049;-74
2023/12/25 07:31:15;;;;;;;5.13;0.65;;;10.90;99.90;;;;;;4953052;28;20043;-73
2023/12/25 07:33:41;;;;;;;5.60;0.98;;;10.80;99.90;;;;;;4951730;28;20037;-75
2023/12/25 07:36:06;;;;;;;5.15;0.40;;;10.80;99.90;;;;;;4950542;28;20035;-73
2023/12/25 07:38:32;;;;;;;10.23;0.70;;;10.80;99.90;;;;;;4961806;28;20066;-73
2023/12/25 07:40:58;;;;;;;3.55;0.57;;;10.80;99.90;;;;;;4953433;28;20503;-74
2023/12/25 07:43:24;;;;;;;2.40;0.40;;;10.90;99.90;;;;;;4968052;28;20427;-76
2023/12/25 07:45:50;;;;;;;7.15;0.57;;;10.90;99.90;;;;;;4960253;28;20043;-73
2023/12/25 07:48:16;;;;;;;3.78;0.55;;;10.80;99.90;;;;;;4958091;28;20447;-74
2023/12/25 07:50:42;;;;;;;6.57;0.40;;;10.90;99.90;;;;;;4954338;28;20040;-75
2023/12/25 07:53:08;;;;;;;6.50;0.52;;;10.90;99.90;;;;;;4957213;28;20049;-74
2023/12/25 07:55:36;;;;;;;6.72;0.40;;;10.90;99.90;;;;;;4948401;28;20086;-75
2023/12/25 07:58:02;;;;;;;5.22;1.00;;;10.90;99.90;;;;;;4954146;28;20047;-75
2023/12/25 08:00:27;;;;;;;2.53;0.77;;;10.90;99.90;;;;;;4958968;28;20038;-74
2023/12/25 08:02:53;;;;;;;5.97;0.40;;;10.90;99.90;;;;;;4947956;28;20040;-73
2023/12/25 08:05:19;;;;;;;3.83;0.40;;;10.90;99.90;;;;;;4957708;28;20035;-74
2023/12/25 08:07:44;;;;;;;6.28;0.35;;;10.90;99.90;;;;;;4965122;28;20439;-73
2023/12/25 08:10:13;;;;;;;10.85;1.48;;;10.90;99.90;;;;;;4957527;28;20466;-73
2023/12/25 08:12:43;;;;;;;3.63;0.30;;;11.00;99.90;;;;;;4953271;28;20027;-75
2023/12/25 08:15:12;;;;;;;2.20;0.50;;;11.00;99.90;;;;;;4959801;28;20034;-73
2023/12/25 08:17:38;;;;;;;1.52;0.28;;;11.00;99.90;;;;;;4950990;28;20035;-75
2023/12/25 08:20:05;;;;;;;4.45;0.45;;;11.00;99.90;;;;;;4955719;28;20562;-74
2023/12/25 08:22:31;;;;;;;2.92;0.63;;;11.00;99.90;;;;;;4956495;28;20043;-72
2023/12/25 08:24:56;;;;;;;3.80;0.85;;;11.00;99.90;;;;;;4954693;28;20507;-72
2023/12/25 08:27:22;;;;;;;4.57;0.52;;;11.00;99.90;;;;;;4953512;28;20466;-74
2023/12/25 08:29:47;;;;;;;2.00;0.40;;;11.00;99.90;;;;;;4959118;28;20033;-73
2023/12/25 08:32:13;;;;;;;0.75;0.10;;;11.00;99.90;;;;;;4954409;28;20039;-73
2023/12/25 08:34:41;;;;;;;5.28;0.38;;;11.10;99.90;;;;;;4962041;28;20516;-72
2023/12/25 08:37:07;;;;;;;3.65;1.13;;;11.10;99.90;;;;;;4957453;28;20038;-73
2023/12/25 08:39:33;;;;;;;4.57;0.40;;;11.10;99.90;;;;;;4946563;28;20041;-72
2023/12/25 08:42:00;;;;;;;3.15;0.60;;;11.10;99.90;;;;;;4957481;28;20122;-73
2023/12/25 08:44:27;;;;;;;4.55;0.63;;;11.10;99.90;;;;;;4967615;28;20046;-73
2023/12/25 08:46:52;;;;;;;3.97;0.30;;;11.10;99.90;;;;;;4965227;28;20616;-73
2023/12/25 08:49:18;;;;;;;6.32;1.05;;;11.10;99.90;;;;;;4953872;28;20102;-73
2023/12/25 08:51:43;;;;;;;3.45;0.43;;;11.10;99.90;;;;;;4955276;28;20187;-73
2023/12/25 08:54:09;;;;;;;4.25;0.70;;;11.10;99.90;;;;;;4956490;28;20027;-73
2023/12/25 08:56:35;;;;;;;6.93;0.60;;;11.10;99.90;;;;;;4949412;28;20039;-73
2023/12/25 08:59:00;;;;;;;4.55;0.40;;;11.10;99.90;;;;;;4959091;28;20043;-73
2023/12/25 09:01:28;;;;;;;9.23;1.23;;;11.20;99.90;;;;;;4968086;28;20053;-73
2023/12/25 09:03:54;;;;;;;4.60;0.32;;;11.20;99.90;;;;;;4963631;28;20065;-73
2023/12/25 09:06:19;;;;;;;3.38;0.20;;;11.20;99.90;;;;;;4967242;28;20034;-73
2023/12/25 09:08:46;;;;;;;4.35;0.52;;;11.20;99.90;;;;;;4966879;28;20110;-73
2023/12/25 09:11:12;;;;;;;2.55;0.40;;;11.20;99.90;;;;;;4956358;28;20049;-73
2023/12/25 09:13:38;;;;;;;3.17;0.52;;;11.20;99.90;;;;;;4947289;28;20042;-73
2023/12/25 09:16:03;;;;;;;2.22;0.20;;;11.20;99.90;;;;;;4951745;28;20067;-73
2023/12/25 09:18:29;;;;;;;4.10;0.88;;;11.30;99.90;;;;;;4946859;28;20529;-72
2023/12/25 09:20:57;;;;;;;6.70;1.15;;;11.20;99.90;;;;;;4947606;28;20048;-73
2023/12/25 09:23:23;;;;;;;6.03;1.38;;;11.30;99.90;;;;;;4949178;28;20491;-73
2023/12/25 09:25:48;;;;;;;6.65;0.88;;;11.30;99.90;;;;;;4947912;28;20044;-74
2023/12/25 09:28:14;;;;;;;0.70;0.20;;;11.30;99.90;;;;;;4929292;28;20111;-73
2023/12/25 09:30:40;;;;;;;6.85;1.25;;;11.30;99.90;;;;;;4929619;28;20075;-73
2023/12/25 09:33:05;;;;;;;3.90;0.60;;;11.30;99.90;;;;;;4948126;28;20039;-73
2023/12/25 09:35:31;;;;;;;4.78;0.70;;;11.30;99.90;;;;;;4945023;28;20039;-74
2023/12/25 09:37:56;;;;;;;1.13;0.68;;;11.40;99.90;;;;;;4947113;28;20759;-73
2023/12/25 09:40:22;;;;;;;2.80;0.70;;;11.40;99.90;;;;;;4945226;28;20051;-73
2023/12/25 09:42:49;;;;;;;3.13;0.82;;;11.40;99.90;;;;;;4959163;28;20166;-73
2023/12/25 09:45:16;;;;;;;2.47;0.47;;;11.40;99.90;;;;;;4967984;28;20129;-73
2023/12/25 09:47:43;;;;;;;3.13;0.55;;;11.40;99.90;;;;;;4956596;28;20086;-73
2023/12/25 09:50:10;;;;;;;1.85;0.63;;;11.50;99.90;;;;;;4949188;28;20518;-73
2023/12/25 09:52:35;;;;;;;3.20;0.43;;;11.50;99.90;;;;;;4947796;28;20427;-73
2023/12/25 09:55:01;;;;;;;2.40;0.20;;;11.50;99.90;;;;;;4947179;28;20028;-73
2023/12/25 09:57:29;;;;;;;2.30;0.40;;;11.50;99.90;;;;;;4948888;28;20144;-72
2023/12/25 09:59:56;;;;;;;2.70;0.38;;;11.50;99.90;;;;;;4966097;28;20060;-72
2023/12/25 10:02:22;;;;;;;3.15;0.50;;;11.50;99.90;;;;;;4965676;28;20037;-73
2023/12/25 10:04:49;;;;;;;4.32;0.52;;;11.60;99.90;;;;;;4966445;28;20033;-73
2023/12/25 10:07:20;;;;;;;1.00;0.22;;;11.60;99.90;;;;;;4953878;28;20059;-73
2023/12/25 10:09:46;;;;;;;;;;;11.60;99.90;;;;;;4955127;28;20026;-73
2023/12/25 10:12:12;;;;;;;3.70;0.35;;;11.60;99.90;;;;;;4959956;28;19918;-73
2023/12/25 10:14:38;;;;;;;6.45;0.55;;;11.60;99.90;;;;;;4949550;28;20057;-72
2023/12/25 10:17:04;;;;;;;1.10;0.20;;;11.60;99.90;;;;;;4947230;29;20043;-72
2023/12/25 10:19:29;;;;;;;2.47;0.50;;;11.70;99.90;;;;;;4948978;28;20071;-75
2023/12/25 10:21:55;;;;;;;4.97;0.47;;;11.70;99.90;;;;;;4951276;28;20499;-73
2023/12/25 10:24:26;;;;;;;2.70;0.32;;;11.70;99.90;;;;;;4946371;28;20448;-73
2023/12/25 10:26:52;;;;;;;1.92;0.50;;;11.70;99.90;;;;;;4933891;28;20516;-74
2023/12/25 10:29:17;;;;;;;4.15;0.55;;;11.70;99.90;;;;;;4928665;28;20046;-74
2023/12/25 10:31:47;;;;;;;2.85;0.10;;;11.70;99.90;;;;;;4926966;28;20801;-73
2023/12/25 10:34:19;;;;;;;5.70;0.65;;;11.70;99.90;;;;;;4929605;29;20051;-72
2023/12/25 10:36:48;;;;;;;1.35;0.15;;;11.70;99.90;;;;;;4943471;28;20075;-72
2023/12/25 10:39:29;;;;;;;2.22;0.50;;;11.70;99.90;;;;;;4961935;28;20045;-71
2023/12/25 10:41:56;;;;;;;2.38;0.90;;;11.70;99.90;;;;;;4944931;28;20515;-74
2023/12/25 10:44:23;;;;;;;3.30;0.30;;;11.70;99.90;;;;;;4947603;28;20107;-72
2023/12/25 10:46:49;;;;;;;2.42;0.43;;;11.80;99.90;;;;;;4947591;28;20493;-72
2023/12/25 10:49:15;;;;;;;3.03;0.45;;;11.80;99.90;;;;;;4947412;28;20082;-72
2023/12/25 10:51:43;;;;;;;1.95;0.65;;;11.80;99.90;;;;;;4955122;28;20031;-71
2023/12/25 10:54:10;;;;;;;3.05;0.40;;;11.80;99.90;;;;;;4946505;28;20031;-71
2023/12/25 10:56:42;;;;;;;1.58;0.20;;;11.80;99.90;;;;;;4947528;28;20548;-73
2023/12/25 10:59:30;;;;;;;3.80;0.50;;;11.80;99.90;;;;;;4946207;28;20638;-72
2023/12/25 11:02:00;;;;;;;4.85;0.30;;;11.80;99.90;;;;;;4945298;28;20126;-72
2023/12/25 11:04:26;;;;;;;2.38;0.65;;;11.80;99.90;;;;;;4964040;28;20027;-72
2023/12/25 11:06:54;;;;;;;2.15;0.35;;;11.90;99.90;;;;;;4967020;28;20034;-72
2023/12/25 11:09:22;;;;;;;1.65;0.20;;;12.00;99.90;;;;;;4965010;28;20479;-72
2023/12/25 11:11:48;;;;;;;0.68;0.30;;;12.00;99.90;;;;;;4959317;28;20122;-73
2023/12/25 11:14:14;;;;;;;4.47;0.40;;;12.10;99.90;;;;;;4960409;28;20181;-73
2023/12/25 11:16:40;;;;;;;3.03;0.20;;;12.10;99.90;;;;;;4958747;28;20466;-72
2023/12/25 11:19:06;;;;;;;2.33;0.50;;;12.10;99.90;;;;;;4953027;28;20039;-73
2023/12/25 11:21:34;;;;;;;1.40;0.30;;;12.10;99.90;;;;;;4960606;28;20038;-72
2023/12/25 11:24:00;;;;;;;5.72;0.40;;;12.00;99.90;;;;;;4965656;28;20031;-72
2023/12/25 11:26:30;;;;;;;1.17;0.20;;;12.00;99.90;;;;;;4954816;28;20047;-71
2023/12/25 11:29:06;;;;;;;5.10;0.20;;;12.10;99.90;;;;;;4950031;28;20039;-72
2023/12/25 11:31:42;;;;;;;1.75;0.30;;;12.10;99.90;;;;;;4947878;28;20142;-73
2023/12/25 11:34:20;;;;;;;7.82;0.77;;;12.20;99.90;;;;;;4941334;28;20079;-72
2023/12/25 11:36:47;;;;;;;0.65;0.05;;;12.20;99.90;;;;;;4956344;28;20035;-72
2023/12/25 11:39:12;;;;;;;6.18;0.40;;;12.20;99.90;;;;;;4950337;28;20135;-72
2023/12/25 11:41:38;;;;;;;1.75;0.20;;;12.20;99.90;;;;;;4947178;28;20110;-72
2023/12/25 11:44:06;;;;;;;2.05;0.30;;;12.20;99.90;;;;;;4948699;28;20031;-71
2023/12/25 11:46:35;;;;;;;4.13;1.02;;;12.10;99.90;;;;;;4956194;28;20774;-73
2023/12/25 11:49:00;;;;;;;1.05;0.10;;;12.10;99.90;;;;;;4942760;28;20035;-72
2023/12/25 11:51:29;;;;;;;1.63;0.85;;;12.20;99.90;;;;;;4944316;28;20035;-71
2023/12/25 11:54:01;;;;;;;4.70;0.28;;;12.20;99.90;;;;;;4960793;28;20070;-73
2023/12/25 11:56:31;;;;;;;2.13;0.30;;;12.20;99.90;;;;;;4963676;28;20177;-72
2023/12/25 11:58:56;;;;;;;5.78;0.30;;;12.20;99.90;;;;;;4968548;28;20050;-74
2023/12/25 12:01:22;;;;;;;2.65;0.30;;;12.30;99.90;;;;;;4968270;28;20035;-74
2023/12/25 12:03:50;;;;;;;0.98;0.20;;;12.30;99.90;;;;;;4948237;28;20582;-72
2023/12/25 12:06:17;;;;;;;4.30;0.65;;;12.20;99.90;;;;;;4952602;28;20126;-73
2023/12/25 12:08:43;;;;;;;10.70;1.10;;;12.30;99.90;;;;;;4950639;28;20651;-73
2023/12/25 12:11:10;;;;;;;1.88;0.80;;;12.30;99.90;;;;;;4952308;28;20035;-71
2023/12/25 12:13:36;;;;;;;1.77;0.40;;;12.30;99.90;;;;;;4948688;28;20070;-72
2023/12/25 12:16:03;;;;;;;6.55;0.52;;;12.20;99.90;;;;;;4963966;28;20436;-72
2023/12/25 12:18:29;;;;;;;3.08;0.60;;;12.20;99.90;;;;;;4961397;28;20058;-73
2023/12/25 12:20:55;;;;;;;4.72;0.50;;;12.20;99.90;;;;;;4946675;28;20039;-72
2023/12/25 12:23:21;;;;;;;1.80;0.38;;;12.20;99.90;;;;;;4949494;28;20086;-72
2023/12/25 12:25:47;;;;;;;4.40;0.60;;;12.20;99.90;;;;;;4948424;28;20047;-73
2023/12/25 12:28:16;;;;;;;1.55;0.25;;;12.20;99.90;;;;;;4949559;28;20036;-72
2023/12/25 12:30:42;;;;;;;1.77;0.28;;;12.20;99.90;;;;;;4952189;28;20039;-71
2023/12/25 12:33:12;;;;;;;2.85;0.45;;;12.20;99.90;;;;;;4944863;28;20046;-74
2023/12/25 12:35:39;;;;;;;2.70;0.90;;;12.20;99.90;;;;;;4937895;28;20129;-73
2023/12/25 12:38:05;;;;;;;13.13;3.25;;;12.20;99.90;;;;;;4952734;28;20039;-74